sensor_id;sensor_type;location;lat;lon;timestamp;P1;durP1;ratioP1;P2;durP2;ratioP2
37349;SDS011;23231;52.358;4.926;2023-04-21T00:00:51;22.23;;;12.90;;
37349;SDS011;23231;52.358;4.926;2023-04-21T00:05:54;26.02;;;13.63;;
37349;SDS011;23231;52.358;4.926;2023-04-21T00:10:57;21.85;;;12.98;;
37349;SDS011;23231;52.358;4.926;2023-04-21T00:15:58;23.77;;;13.55;;
37349;SDS011;23231;52.358;4.926;2023-04-21T00:20:58;27.00;;;14.23;;
37349;SDS011;23231;52.358;4.926;2023-04-21T00:25:58;24.52;;;14.05;;
37349;SDS011;23231;52.358;4.926;2023-04-21T00:31:01;23.92;;;14.15;;
37349;SDS011;23231;52.358;4.926;2023-04-21T00:36:01;27.00;;;15.23;;
37349;SDS011;23231;52.358;4.926;2023-04-21T00:41:02;31.38;;;16.38;;
37349;SDS011;23231;52.358;4.926;2023-04-21T00:46:03;27.65;;;15.32;;
37349;SDS011;23231;52.358;4.926;2023-04-21T00:51:03;26.92;;;15.07;;
37349;SDS011;23231;52.358;4.926;2023-04-21T00:56:04;26.48;;;15.73;;
37349;SDS011;23231;52.358;4.926;2023-04-21T01:01:04;31.65;;;17.65;;
37349;SDS011;23231;52.358;4.926;2023-04-21T01:06:05;32.42;;;17.77;;
37349;SDS011;23231;52.358;4.926;2023-04-21T01:11:09;29.77;;;16.83;;
37349;SDS011;23231;52.358;4.926;2023-04-21T01:16:14;30.55;;;17.50;;
37349;SDS011;23231;52.358;4.926;2023-04-21T01:21:16;38.42;;;19.67;;
37349;SDS011;23231;52.358;4.926;2023-04-21T01:26:18;36.22;;;19.67;;
37349;SDS011;23231;52.358;4.926;2023-04-21T01:31:20;36.70;;;19.45;;
37349;SDS011;23231;52.358;4.926;2023-04-21T01:36:21;36.40;;;20.08;;
37349;SDS011;23231;52.358;4.926;2023-04-21T01:41:21;38.13;;;20.30;;
37349;SDS011;23231;52.358;4.926;2023-04-21T01:46:21;36.88;;;19.75;;
37349;SDS011;23231;52.358;4.926;2023-04-21T01:51:22;36.35;;;20.05;;
37349;SDS011;23231;52.358;4.926;2023-04-21T01:56:22;41.55;;;21.85;;
37349;SDS011;23231;52.358;4.926;2023-04-21T02:01:22;37.97;;;21.40;;
37349;SDS011;23231;52.358;4.926;2023-04-21T02:06:23;41.33;;;21.60;;
37349;SDS011;23231;52.358;4.926;2023-04-21T02:11:24;37.92;;;20.35;;
37349;SDS011;23231;52.358;4.926;2023-04-21T02:16:24;37.85;;;20.25;;
37349;SDS011;23231;52.358;4.926;2023-04-21T02:21:26;37.72;;;20.20;;
37349;SDS011;23231;52.358;4.926;2023-04-21T02:26:26;35.45;;;20.73;;
37349;SDS011;23231;52.358;4.926;2023-04-21T02:31:27;38.75;;;20.35;;
37349;SDS011;23231;52.358;4.926;2023-04-21T02:36:27;43.45;;;22.45;;
37349;SDS011;23231;52.358;4.926;2023-04-21T02:41:28;40.88;;;21.77;;
37349;SDS011;23231;52.358;4.926;2023-04-21T02:46:29;39.17;;;22.30;;
37349;SDS011;23231;52.358;4.926;2023-04-21T02:51:29;42.65;;;20.80;;
37349;SDS011;23231;52.358;4.926;2023-04-21T02:56:31;38.90;;;20.65;;
37349;SDS011;23231;52.358;4.926;2023-04-21T03:01:33;42.53;;;21.73;;
37349;SDS011;23231;52.358;4.926;2023-04-21T03:06:33;34.83;;;19.13;;
37349;SDS011;23231;52.358;4.926;2023-04-21T03:11:34;36.33;;;19.33;;
37349;SDS011;23231;52.358;4.926;2023-04-21T03:16:34;36.05;;;19.17;;
37349;SDS011;23231;52.358;4.926;2023-04-21T03:21:35;34.08;;;17.77;;
37349;SDS011;23231;52.358;4.926;2023-04-21T03:26:37;34.97;;;19.38;;
37349;SDS011;23231;52.358;4.926;2023-04-21T03:31:39;35.65;;;18.15;;
37349;SDS011;23231;52.358;4.926;2023-04-21T03:36:39;34.70;;;18.45;;
37349;SDS011;23231;52.358;4.926;2023-04-21T03:41:40;32.92;;;16.98;;
37349;SDS011;23231;52.358;4.926;2023-04-21T03:46:40;31.75;;;16.13;;
37349;SDS011;23231;52.358;4.926;2023-04-21T03:51:41;31.75;;;17.17;;
37349;SDS011;23231;52.358;4.926;2023-04-21T03:56:41;32.45;;;16.45;;
37349;SDS011;23231;52.358;4.926;2023-04-21T04:01:41;29.23;;;14.90;;
37349;SDS011;23231;52.358;4.926;2023-04-21T04:06:42;27.70;;;15.30;;
37349;SDS011;23231;52.358;4.926;2023-04-21T04:11:42;35.05;;;15.95;;
37349;SDS011;23231;52.358;4.926;2023-04-21T04:16:43;26.80;;;14.45;;
37349;SDS011;23231;52.358;4.926;2023-04-21T04:21:43;25.58;;;13.45;;
37349;SDS011;23231;52.358;4.926;2023-04-21T04:26:43;25.05;;;13.68;;
37349;SDS011;23231;52.358;4.926;2023-04-21T04:31:44;24.10;;;13.18;;
37349;SDS011;23231;52.358;4.926;2023-04-21T04:36:45;27.13;;;14.52;;
37349;SDS011;23231;52.358;4.926;2023-04-21T04:41:46;27.13;;;13.95;;
37349;SDS011;23231;52.358;4.926;2023-04-21T04:46:47;28.85;;;14.50;;
37349;SDS011;23231;52.358;4.926;2023-04-21T04:51:48;30.55;;;15.90;;
37349;SDS011;23231;52.358;4.926;2023-04-21T04:56:48;28.95;;;16.05;;
37349;SDS011;23231;52.358;4.926;2023-04-21T05:01:49;31.67;;;18.10;;
37349;SDS011;23231;52.358;4.926;2023-04-21T05:06:50;38.25;;;19.65;;
37349;SDS011;23231;52.358;4.926;2023-04-21T05:11:51;37.40;;;18.95;;
37349;SDS011;23231;52.358;4.926;2023-04-21T05:16:51;37.08;;;20.88;;
37349;SDS011;23231;52.358;4.926;2023-04-21T05:21:51;43.40;;;22.67;;
37349;SDS011;23231;52.358;4.926;2023-04-21T05:26:52;44.03;;;22.38;;
37349;SDS011;23231;52.358;4.926;2023-04-21T05:31:53;38.47;;;20.35;;
37349;SDS011;23231;52.358;4.926;2023-04-21T05:36:53;44.60;;;23.20;;
37349;SDS011;23231;52.358;4.926;2023-04-21T05:41:53;39.78;;;22.08;;
37349;SDS011;23231;52.358;4.926;2023-04-21T05:46:54;34.55;;;19.40;;
37349;SDS011;23231;52.358;4.926;2023-04-21T05:51:54;36.00;;;20.23;;
37349;SDS011;23231;52.358;4.926;2023-04-21T05:56:55;35.67;;;20.50;;
37349;SDS011;23231;52.358;4.926;2023-04-21T06:01:55;45.15;;;24.20;;
37349;SDS011;23231;52.358;4.926;2023-04-21T06:06:56;42.30;;;24.48;;
37349;SDS011;23231;52.358;4.926;2023-04-21T06:11:56;59.70;;;29.00;;
37349;SDS011;23231;52.358;4.926;2023-04-21T06:16:57;57.08;;;29.50;;
37349;SDS011;23231;52.358;4.926;2023-04-21T06:21:57;49.15;;;27.63;;
37349;SDS011;23231;52.358;4.926;2023-04-21T06:26:58;49.97;;;28.17;;
37349;SDS011;23231;52.358;4.926;2023-04-21T06:31:58;52.50;;;28.58;;
37349;SDS011;23231;52.358;4.926;2023-04-21T06:36:58;49.42;;;27.13;;
37349;SDS011;23231;52.358;4.926;2023-04-21T06:41:59;46.90;;;25.75;;
37349;SDS011;23231;52.358;4.926;2023-04-21T06:46:59;44.83;;;26.33;;
37349;SDS011;23231;52.358;4.926;2023-04-21T06:52:00;44.42;;;26.58;;
37349;SDS011;23231;52.358;4.926;2023-04-21T06:57:00;46.22;;;28.40;;
37349;SDS011;23231;52.358;4.926;2023-04-21T07:02:01;48.97;;;27.67;;
37349;SDS011;23231;52.358;4.926;2023-04-21T07:07:01;46.58;;;27.10;;
37349;SDS011;23231;52.358;4.926;2023-04-21T07:12:01;50.45;;;29.52;;
37349;SDS011;23231;52.358;4.926;2023-04-21T07:17:02;45.05;;;27.98;;
37349;SDS011;23231;52.358;4.926;2023-04-21T07:22:02;54.95;;;29.30;;
37349;SDS011;23231;52.358;4.926;2023-04-21T07:27:03;49.50;;;27.92;;
37349;SDS011;23231;52.358;4.926;2023-04-21T07:32:03;46.67;;;27.40;;
37349;SDS011;23231;52.358;4.926;2023-04-21T07:37:03;46.83;;;27.75;;
37349;SDS011;23231;52.358;4.926;2023-04-21T07:42:04;52.03;;;29.50;;
37349;SDS011;23231;52.358;4.926;2023-04-21T07:47:07;48.63;;;30.10;;
37349;SDS011;23231;52.358;4.926;2023-04-21T07:52:07;47.25;;;27.55;;
37349;SDS011;23231;52.358;4.926;2023-04-21T07:57:08;40.20;;;25.92;;
37349;SDS011;23231;52.358;4.926;2023-04-21T08:02:08;39.53;;;25.95;;
37349;SDS011;23231;52.358;4.926;2023-04-21T08:07:08;44.40;;;26.65;;
37349;SDS011;23231;52.358;4.926;2023-04-21T08:12:09;41.33;;;26.20;;
37349;SDS011;23231;52.358;4.926;2023-04-21T08:17:09;40.75;;;25.90;;
37349;SDS011;23231;52.358;4.926;2023-04-21T08:22:10;38.22;;;23.92;;
37349;SDS011;23231;52.358;4.926;2023-04-21T08:27:10;37.20;;;24.17;;
37349;SDS011;23231;52.358;4.926;2023-04-21T08:32:11;41.42;;;26.58;;
37349;SDS011;23231;52.358;4.926;2023-04-21T08:37:11;41.00;;;25.80;;
37349;SDS011;23231;52.358;4.926;2023-04-21T08:42:12;39.33;;;25.75;;
37349;SDS011;23231;52.358;4.926;2023-04-21T08:47:14;36.38;;;24.23;;
37349;SDS011;23231;52.358;4.926;2023-04-21T08:52:14;36.45;;;24.40;;
37349;SDS011;23231;52.358;4.926;2023-04-21T08:57:15;35.05;;;23.60;;
37349;SDS011;23231;52.358;4.926;2023-04-21T09:02:16;40.42;;;25.95;;
37349;SDS011;23231;52.358;4.926;2023-04-21T09:07:28;36.28;;;25.27;;
37349;SDS011;23231;52.358;4.926;2023-04-21T09:12:30;36.00;;;25.17;;
37349;SDS011;23231;52.358;4.926;2023-04-21T09:17:31;35.47;;;24.15;;
37349;SDS011;23231;52.358;4.926;2023-04-21T09:22:32;37.85;;;24.65;;
37349;SDS011;23231;52.358;4.926;2023-04-21T09:27:36;36.58;;;23.13;;
37349;SDS011;23231;52.358;4.926;2023-04-21T09:32:37;34.83;;;22.80;;
37349;SDS011;23231;52.358;4.926;2023-04-21T09:37:38;35.75;;;23.70;;
37349;SDS011;23231;52.358;4.926;2023-04-21T09:42:39;31.38;;;22.65;;
37349;SDS011;23231;52.358;4.926;2023-04-21T09:47:40;32.00;;;22.33;;
37349;SDS011;23231;52.358;4.926;2023-04-21T09:52:41;30.63;;;22.15;;
37349;SDS011;23231;52.358;4.926;2023-04-21T09:57:42;31.05;;;21.83;;
37349;SDS011;23231;52.358;4.926;2023-04-21T10:02:47;30.10;;;21.85;;
37349;SDS011;23231;52.358;4.926;2023-04-21T10:07:48;28.40;;;20.60;;
37349;SDS011;23231;52.358;4.926;2023-04-21T10:12:49;32.80;;;22.15;;
37349;SDS011;23231;52.358;4.926;2023-04-21T10:17:50;29.38;;;20.63;;
37349;SDS011;23231;52.358;4.926;2023-04-21T10:22:55;30.77;;;21.33;;
37349;SDS011;23231;52.358;4.926;2023-04-21T10:27:56;32.88;;;22.10;;
37349;SDS011;23231;52.358;4.926;2023-04-21T10:33:03;30.33;;;21.58;;
37349;SDS011;23231;52.358;4.926;2023-04-21T10:38:05;32.88;;;22.85;;
37349;SDS011;23231;52.358;4.926;2023-04-21T10:43:06;34.88;;;22.52;;
37349;SDS011;23231;52.358;4.926;2023-04-21T10:48:50;33.67;;;21.95;;
37349;SDS011;23231;52.358;4.926;2023-04-21T10:53:51;30.77;;;21.70;;
37349;SDS011;23231;52.358;4.926;2023-04-21T10:58:51;29.25;;;20.80;;
37349;SDS011;23231;52.358;4.926;2023-04-21T11:03:52;26.65;;;19.45;;
37349;SDS011;23231;52.358;4.926;2023-04-21T11:08:56;28.38;;;19.55;;
37349;SDS011;23231;52.358;4.926;2023-04-21T11:13:59;28.00;;;21.17;;
37349;SDS011;23231;52.358;4.926;2023-04-21T11:19:00;28.67;;;21.10;;
37349;SDS011;23231;52.358;4.926;2023-04-21T11:24:00;29.65;;;21.02;;
37349;SDS011;23231;52.358;4.926;2023-04-21T11:29:02;29.67;;;21.02;;
37349;SDS011;23231;52.358;4.926;2023-04-21T11:34:05;31.23;;;20.77;;
37349;SDS011;23231;52.358;4.926;2023-04-21T11:39:07;26.50;;;20.20;;
37349;SDS011;23231;52.358;4.926;2023-04-21T11:44:09;27.58;;;20.85;;
37349;SDS011;23231;52.358;4.926;2023-04-21T11:49:10;29.52;;;20.08;;
37349;SDS011;23231;52.358;4.926;2023-04-21T11:54:11;28.02;;;20.40;;
37349;SDS011;23231;52.358;4.926;2023-04-21T11:59:13;26.73;;;19.88;;
37349;SDS011;23231;52.358;4.926;2023-04-21T12:04:16;29.83;;;20.10;;
37349;SDS011;23231;52.358;4.926;2023-04-21T12:09:18;28.85;;;20.75;;
37349;SDS011;23231;52.358;4.926;2023-04-21T12:14:21;26.88;;;19.80;;
37349;SDS011;23231;52.358;4.926;2023-04-21T12:19:35;29.08;;;20.27;;
37349;SDS011;23231;52.358;4.926;2023-04-21T12:24:38;26.67;;;19.90;;
37349;SDS011;23231;52.358;4.926;2023-04-21T12:29:40;25.25;;;19.02;;
37349;SDS011;23231;52.358;4.926;2023-04-21T12:34:40;24.50;;;17.42;;
37349;SDS011;23231;52.358;4.926;2023-04-21T12:39:42;27.75;;;20.08;;
37349;SDS011;23231;52.358;4.926;2023-04-21T12:44:43;26.42;;;18.88;;
37349;SDS011;23231;52.358;4.926;2023-04-21T12:49:44;24.17;;;18.98;;
37349;SDS011;23231;52.358;4.926;2023-04-21T12:54:44;23.15;;;17.85;;
37349;SDS011;23231;52.358;4.926;2023-04-21T12:59:44;26.15;;;19.20;;
37349;SDS011;23231;52.358;4.926;2023-04-21T13:04:45;26.20;;;18.27;;
37349;SDS011;23231;52.358;4.926;2023-04-21T13:09:46;26.48;;;19.50;;
37349;SDS011;23231;52.358;4.926;2023-04-21T13:14:46;26.00;;;19.25;;
37349;SDS011;23231;52.358;4.926;2023-04-21T13:19:47;21.90;;;17.27;;
37349;SDS011;23231;52.358;4.926;2023-04-21T13:24:47;23.77;;;17.75;;
37349;SDS011;23231;52.358;4.926;2023-04-21T13:29:47;25.38;;;18.75;;
37349;SDS011;23231;52.358;4.926;2023-04-21T13:34:48;27.60;;;19.45;;
37349;SDS011;23231;52.358;4.926;2023-04-21T13:39:48;24.27;;;18.23;;
37349;SDS011;23231;52.358;4.926;2023-04-21T13:44:49;26.30;;;18.58;;
37349;SDS011;23231;52.358;4.926;2023-04-21T13:49:49;24.90;;;19.05;;
37349;SDS011;23231;52.358;4.926;2023-04-21T13:54:51;27.90;;;20.17;;
37349;SDS011;23231;52.358;4.926;2023-04-21T13:59:51;36.17;;;24.95;;
37349;SDS011;23231;52.358;4.926;2023-04-21T14:04:53;27.13;;;18.65;;
37349;SDS011;23231;52.358;4.926;2023-04-21T14:09:53;28.17;;;19.58;;
37349;SDS011;23231;52.358;4.926;2023-04-21T14:14:54;25.63;;;19.92;;
37349;SDS011;23231;52.358;4.926;2023-04-21T14:19:54;25.70;;;17.65;;
37349;SDS011;23231;52.358;4.926;2023-04-21T14:24:54;26.65;;;19.77;;
37349;SDS011;23231;52.358;4.926;2023-04-21T14:29:55;22.13;;;16.85;;
37349;SDS011;23231;52.358;4.926;2023-04-21T14:34:58;23.30;;;18.75;;
37349;SDS011;23231;52.358;4.926;2023-04-21T14:40:02;22.85;;;18.42;;
37349;SDS011;23231;52.358;4.926;2023-04-21T14:45:03;27.02;;;18.33;;
37349;SDS011;23231;52.358;4.926;2023-04-21T14:50:04;22.73;;;16.17;;
37349;SDS011;23231;52.358;4.926;2023-04-21T14:55:05;21.83;;;15.70;;
37349;SDS011;23231;52.358;4.926;2023-04-21T15:00:06;24.42;;;17.90;;
37349;SDS011;23231;52.358;4.926;2023-04-21T15:05:07;23.58;;;18.38;;
37349;SDS011;23231;52.358;4.926;2023-04-21T15:10:08;23.00;;;19.23;;
37349;SDS011;23231;52.358;4.926;2023-04-21T15:15:10;22.23;;;17.98;;
37349;SDS011;23231;52.358;4.926;2023-04-21T15:20:10;23.27;;;18.20;;
37349;SDS011;23231;52.358;4.926;2023-04-21T15:25:11;26.55;;;19.33;;
37349;SDS011;23231;52.358;4.926;2023-04-21T15:30:11;25.08;;;18.05;;
37349;SDS011;23231;52.358;4.926;2023-04-21T15:35:13;24.90;;;17.58;;
37349;SDS011;23231;52.358;4.926;2023-04-21T15:40:13;26.20;;;18.35;;
37349;SDS011;23231;52.358;4.926;2023-04-21T15:45:14;27.17;;;19.75;;
37349;SDS011;23231;52.358;4.926;2023-04-21T15:50:16;32.25;;;22.73;;
37349;SDS011;23231;52.358;4.926;2023-04-21T15:55:17;32.78;;;22.67;;
37349;SDS011;23231;52.358;4.926;2023-04-21T16:00:18;34.15;;;24.42;;
37349;SDS011;23231;52.358;4.926;2023-04-21T16:05:18;33.40;;;23.58;;
37349;SDS011;23231;52.358;4.926;2023-04-21T16:10:18;33.35;;;23.45;;
37349;SDS011;23231;52.358;4.926;2023-04-21T16:15:19;31.20;;;21.85;;
37349;SDS011;23231;52.358;4.926;2023-04-21T16:20:20;31.77;;;22.48;;
37349;SDS011;23231;52.358;4.926;2023-04-21T16:25:20;31.35;;;21.92;;
37349;SDS011;23231;52.358;4.926;2023-04-21T16:30:21;30.02;;;21.05;;
37349;SDS011;23231;52.358;4.926;2023-04-21T16:35:21;33.47;;;22.50;;
37349;SDS011;23231;52.358;4.926;2023-04-21T16:40:22;31.27;;;21.52;;
37349;SDS011;23231;52.358;4.926;2023-04-21T16:45:23;35.25;;;22.63;;
37349;SDS011;23231;52.358;4.926;2023-04-21T16:50:23;29.35;;;21.60;;
37349;SDS011;23231;52.358;4.926;2023-04-21T16:55:24;29.20;;;21.52;;
37349;SDS011;23231;52.358;4.926;2023-04-21T17:00:24;29.17;;;22.42;;
37349;SDS011;23231;52.358;4.926;2023-04-21T17:05:25;33.97;;;23.58;;
37349;SDS011;23231;52.358;4.926;2023-04-21T17:10:26;26.90;;;20.55;;
37349;SDS011;23231;52.358;4.926;2023-04-21T17:15:26;36.42;;;24.52;;
37349;SDS011;23231;52.358;4.926;2023-04-21T17:20:27;29.13;;;22.77;;
37349;SDS011;23231;52.358;4.926;2023-04-21T17:25:27;31.25;;;22.42;;
37349;SDS011;23231;52.358;4.926;2023-04-21T17:30:28;25.95;;;21.60;;
37349;SDS011;23231;52.358;4.926;2023-04-21T17:35:28;27.58;;;22.08;;
37349;SDS011;23231;52.358;4.926;2023-04-21T17:40:29;30.90;;;23.10;;
37349;SDS011;23231;52.358;4.926;2023-04-21T17:45:29;29.70;;;22.92;;
37349;SDS011;23231;52.358;4.926;2023-04-21T17:50:30;31.08;;;23.05;;
37349;SDS011;23231;52.358;4.926;2023-04-21T17:55:31;27.67;;;21.90;;
37349;SDS011;23231;52.358;4.926;2023-04-21T18:00:31;27.48;;;21.67;;
37349;SDS011;23231;52.358;4.926;2023-04-21T18:05:33;31.70;;;23.13;;
37349;SDS011;23231;52.358;4.926;2023-04-21T18:10:34;30.15;;;22.60;;
37349;SDS011;23231;52.358;4.926;2023-04-21T18:15:35;32.28;;;23.55;;
37349;SDS011;23231;52.358;4.926;2023-04-21T18:20:36;34.28;;;23.95;;
37349;SDS011;23231;52.358;4.926;2023-04-21T18:25:36;35.47;;;23.33;;
37349;SDS011;23231;52.358;4.926;2023-04-21T18:30:40;33.35;;;23.15;;
37349;SDS011;23231;52.358;4.926;2023-04-21T18:35:41;34.17;;;23.42;;
37349;SDS011;23231;52.358;4.926;2023-04-21T18:40:41;34.53;;;24.35;;
37349;SDS011;23231;52.358;4.926;2023-04-21T18:45:42;40.03;;;26.42;;
37349;SDS011;23231;52.358;4.926;2023-04-21T18:50:42;38.95;;;27.08;;
37349;SDS011;23231;52.358;4.926;2023-04-21T18:55:42;38.72;;;24.85;;
37349;SDS011;23231;52.358;4.926;2023-04-21T19:00:44;41.05;;;27.33;;
37349;SDS011;23231;52.358;4.926;2023-04-21T19:05:44;36.33;;;25.83;;
37349;SDS011;23231;52.358;4.926;2023-04-21T19:10:45;47.10;;;31.05;;
37349;SDS011;23231;52.358;4.926;2023-04-21T19:15:45;50.90;;;31.90;;
37349;SDS011;23231;52.358;4.926;2023-04-21T19:20:45;46.35;;;29.50;;
37349;SDS011;23231;52.358;4.926;2023-04-21T19:25:46;48.58;;;30.50;;
37349;SDS011;23231;52.358;4.926;2023-04-21T19:30:50;39.50;;;23.65;;
37349;SDS011;23231;52.358;4.926;2023-04-21T19:35:50;38.63;;;23.33;;
37349;SDS011;23231;52.358;4.926;2023-04-21T19:40:51;29.13;;;18.88;;
37349;SDS011;23231;52.358;4.926;2023-04-21T19:45:51;23.08;;;15.27;;
37349;SDS011;23231;52.358;4.926;2023-04-21T19:50:52;27.27;;;14.77;;
37349;SDS011;23231;52.358;4.926;2023-04-21T19:55:52;19.23;;;11.70;;
37349;SDS011;23231;52.358;4.926;2023-04-21T20:00:53;15.70;;;9.55;;
37349;SDS011;23231;52.358;4.926;2023-04-21T20:05:53;13.18;;;9.13;;
37349;SDS011;23231;52.358;4.926;2023-04-21T20:10:54;17.08;;;11.77;;
37349;SDS011;23231;52.358;4.926;2023-04-21T20:15:54;17.60;;;10.52;;
37349;SDS011;23231;52.358;4.926;2023-04-21T20:20:56;16.55;;;10.07;;
37349;SDS011;23231;52.358;4.926;2023-04-21T20:25:56;17.67;;;11.50;;
37349;SDS011;23231;52.358;4.926;2023-04-21T20:30:56;13.18;;;8.27;;
37349;SDS011;23231;52.358;4.926;2023-04-21T20:35:57;9.75;;;6.30;;
37349;SDS011;23231;52.358;4.926;2023-04-21T20:41:01;9.98;;;5.65;;
37349;SDS011;23231;52.358;4.926;2023-04-21T20:46:02;9.23;;;5.47;;
37349;SDS011;23231;52.358;4.926;2023-04-21T20:51:03;17.52;;;10.05;;
37349;SDS011;23231;52.358;4.926;2023-04-21T20:56:03;12.23;;;7.22;;
37349;SDS011;23231;52.358;4.926;2023-04-21T21:01:04;10.27;;;6.40;;
37349;SDS011;23231;52.358;4.926;2023-04-21T21:06:04;10.98;;;6.75;;
37349;SDS011;23231;52.358;4.926;2023-04-21T21:11:04;10.02;;;6.20;;
37349;SDS011;23231;52.358;4.926;2023-04-21T21:16:05;10.82;;;6.72;;
37349;SDS011;23231;52.358;4.926;2023-04-21T21:21:05;14.73;;;7.30;;
37349;SDS011;23231;52.358;4.926;2023-04-21T21:26:06;13.85;;;7.57;;
37349;SDS011;23231;52.358;4.926;2023-04-21T21:31:07;14.40;;;7.60;;
37349;SDS011;23231;52.358;4.926;2023-04-21T21:36:07;10.90;;;6.40;;
37349;SDS011;23231;52.358;4.926;2023-04-21T21:41:08;10.93;;;5.75;;
37349;SDS011;23231;52.358;4.926;2023-04-21T21:46:11;9.77;;;5.32;;
37349;SDS011;23231;52.358;4.926;2023-04-21T21:51:11;10.40;;;6.10;;
37349;SDS011;23231;52.358;4.926;2023-04-21T21:56:12;10.48;;;6.60;;
37349;SDS011;23231;52.358;4.926;2023-04-21T22:01:12;13.05;;;7.65;;
37349;SDS011;23231;52.358;4.926;2023-04-21T22:06:16;14.15;;;7.50;;
37349;SDS011;23231;52.358;4.926;2023-04-21T22:11:17;16.02;;;8.25;;
37349;SDS011;23231;52.358;4.926;2023-04-21T22:16:18;10.65;;;6.55;;
37349;SDS011;23231;52.358;4.926;2023-04-21T22:21:19;11.18;;;6.95;;
37349;SDS011;23231;52.358;4.926;2023-04-21T22:26:19;12.23;;;7.45;;
37349;SDS011;23231;52.358;4.926;2023-04-21T22:31:23;13.63;;;8.10;;
37349;SDS011;23231;52.358;4.926;2023-04-21T22:36:23;13.40;;;8.55;;
37349;SDS011;23231;52.358;4.926;2023-04-21T22:41:24;13.60;;;8.80;;
37349;SDS011;23231;52.358;4.926;2023-04-21T22:46:24;14.40;;;8.70;;
37349;SDS011;23231;52.358;4.926;2023-04-21T22:51:25;14.18;;;8.90;;
37349;SDS011;23231;52.358;4.926;2023-04-21T22:56:28;15.55;;;10.40;;
37349;SDS011;23231;52.358;4.926;2023-04-21T23:01:30;14.07;;;9.07;;
37349;SDS011;23231;52.358;4.926;2023-04-21T23:06:31;14.43;;;9.13;;
37349;SDS011;23231;52.358;4.926;2023-04-21T23:11:31;15.98;;;9.45;;
37349;SDS011;23231;52.358;4.926;2023-04-21T23:16:32;15.27;;;9.57;;
37349;SDS011;23231;52.358;4.926;2023-04-21T23:21:32;17.23;;;10.35;;
37349;SDS011;23231;52.358;4.926;2023-04-21T23:26:32;17.25;;;10.77;;
37349;SDS011;23231;52.358;4.926;2023-04-21T23:31:33;17.42;;;11.63;;
37349;SDS011;23231;52.358;4.926;2023-04-21T23:36:33;17.73;;;11.30;;
37349;SDS011;23231;52.358;4.926;2023-04-21T23:41:34;20.63;;;11.60;;
37349;SDS011;23231;52.358;4.926;2023-04-21T23:46:35;21.10;;;12.52;;
37349;SDS011;23231;52.358;4.926;2023-04-21T23:51:35;18.38;;;11.40;;
37349;SDS011;23231;52.358;4.926;2023-04-21T23:56:36;19.48;;;12.30;;
